sensor_id;sensor_type;location;lat;lon;timestamp;P1;durP1;ratioP1;P2;durP2;ratioP2
34204;SDS011;20471;49.680;20.074;2023-04-25T00:02:09;33.50;;;28.60;;
34204;SDS011;20471;49.680;20.074;2023-04-25T00:04:36;33.50;;;27.10;;
34204;SDS011;20471;49.680;20.074;2023-04-25T00:07:03;31.70;;;25.50;;
34204;SDS011;20471;49.680;20.074;2023-04-25T00:09:30;28.50;;;24.80;;
34204;SDS011;20471;49.680;20.074;2023-04-25T00:11:58;28.10;;;22.30;;
34204;SDS011;20471;49.680;20.074;2023-04-25T00:14:24;26.90;;;22.10;;
34204;SDS011;20471;49.680;20.074;2023-04-25T00:16:51;28.10;;;21.60;;
34204;SDS011;20471;49.680;20.074;2023-04-25T00:19:18;29.00;;;23.10;;
34204;SDS011;20471;49.680;20.074;2023-04-25T00:21:44;30.50;;;25.60;;
34204;SDS011;20471;49.680;20.074;2023-04-25T00:24:12;12.80;;;9.50;;
34204;SDS011;20471;49.680;20.074;2023-04-25T00:26:39;8.30;;;6.80;;
34204;SDS011;20471;49.680;20.074;2023-04-25T00:29:05;8.80;;;7.20;;
34204;SDS011;20471;49.680;20.074;2023-04-25T00:31:32;5.40;;;4.80;;
34204;SDS011;20471;49.680;20.074;2023-04-25T00:33:59;6.50;;;4.00;;
34204;SDS011;20471;49.680;20.074;2023-04-25T00:36:25;3.60;;;3.30;;
34204;SDS011;20471;49.680;20.074;2023-04-25T00:38:53;3.30;;;3.00;;
34204;SDS011;20471;49.680;20.074;2023-04-25T00:41:20;3.00;;;2.70;;
34204;SDS011;20471;49.680;20.074;2023-04-25T00:43:47;3.60;;;2.90;;
34204;SDS011;20471;49.680;20.074;2023-04-25T00:46:15;4.00;;;3.10;;
34204;SDS011;20471;49.680;20.074;2023-04-25T00:48:42;3.00;;;2.70;;
34204;SDS011;20471;49.680;20.074;2023-04-25T00:51:09;3.10;;;2.50;;
34204;SDS011;20471;49.680;20.074;2023-04-25T00:53:40;2.90;;;2.50;;
34204;SDS011;20471;49.680;20.074;2023-04-25T00:56:07;3.90;;;2.90;;
34204;SDS011;20471;49.680;20.074;2023-04-25T00:58:34;4.70;;;3.00;;
34204;SDS011;20471;49.680;20.074;2023-04-25T01:01:01;3.10;;;2.80;;
34204;SDS011;20471;49.680;20.074;2023-04-25T01:03:28;4.40;;;2.90;;
34204;SDS011;20471;49.680;20.074;2023-04-25T01:08:28;3.70;;;2.90;;
34204;SDS011;20471;49.680;20.074;2023-04-25T01:10:56;3.30;;;3.00;;
34204;SDS011;20471;49.680;20.074;2023-04-25T01:13:22;3.90;;;3.60;;
34204;SDS011;20471;49.680;20.074;2023-04-25T01:15:49;4.90;;;3.60;;
34204;SDS011;20471;49.680;20.074;2023-04-25T01:18:16;4.70;;;3.30;;
34204;SDS011;20471;49.680;20.074;2023-04-25T01:20:42;4.30;;;4.00;;
34204;SDS011;20471;49.680;20.074;2023-04-25T01:23:10;5.10;;;4.00;;
34204;SDS011;20471;49.680;20.074;2023-04-25T01:25:37;4.20;;;3.70;;
34204;SDS011;20471;49.680;20.074;2023-04-25T01:28:04;4.70;;;4.00;;
34204;SDS011;20471;49.680;20.074;2023-04-25T01:30:31;5.60;;;4.50;;
34204;SDS011;20471;49.680;20.074;2023-04-25T01:32:59;4.50;;;4.10;;
34204;SDS011;20471;49.680;20.074;2023-04-25T01:35:26;4.60;;;4.10;;
34204;SDS011;20471;49.680;20.074;2023-04-25T01:37:53;5.70;;;4.40;;
34204;SDS011;20471;49.680;20.074;2023-04-25T01:40:20;6.00;;;4.70;;
34204;SDS011;20471;49.680;20.074;2023-04-25T01:42:47;5.70;;;4.50;;
34204;SDS011;20471;49.680;20.074;2023-04-25T01:45:14;6.30;;;4.70;;
34204;SDS011;20471;49.680;20.074;2023-04-25T01:47:41;5.40;;;4.70;;
34204;SDS011;20471;49.680;20.074;2023-04-25T01:50:09;5.70;;;4.90;;
34204;SDS011;20471;49.680;20.074;2023-04-25T01:52:36;7.00;;;4.90;;
34204;SDS011;20471;49.680;20.074;2023-04-25T01:55:03;6.50;;;5.80;;
34204;SDS011;20471;49.680;20.074;2023-04-25T01:57:32;5.20;;;4.80;;
34204;SDS011;20471;49.680;20.074;2023-04-25T02:00:00;5.90;;;5.40;;
34204;SDS011;20471;49.680;20.074;2023-04-25T02:02:29;5.50;;;4.80;;
34204;SDS011;20471;49.680;20.074;2023-04-25T02:04:56;5.70;;;5.10;;
34204;SDS011;20471;49.680;20.074;2023-04-25T02:07:22;6.00;;;5.40;;
34204;SDS011;20471;49.680;20.074;2023-04-25T02:09:49;5.60;;;5.00;;
34204;SDS011;20471;49.680;20.074;2023-04-25T02:12:16;7.40;;;5.70;;
34204;SDS011;20471;49.680;20.074;2023-04-25T02:14:42;7.60;;;5.30;;
34204;SDS011;20471;49.680;20.074;2023-04-25T02:17:09;6.60;;;6.00;;
34204;SDS011;20471;49.680;20.074;2023-04-25T02:19:36;7.30;;;6.10;;
34204;SDS011;20471;49.680;20.074;2023-04-25T02:22:02;6.00;;;5.40;;
34204;SDS011;20471;49.680;20.074;2023-04-25T02:24:29;6.40;;;5.60;;
34204;SDS011;20471;49.680;20.074;2023-04-25T02:26:56;5.80;;;5.20;;
34204;SDS011;20471;49.680;20.074;2023-04-25T02:29:22;6.40;;;5.50;;
34204;SDS011;20471;49.680;20.074;2023-04-25T02:31:49;7.70;;;5.80;;
34204;SDS011;20471;49.680;20.074;2023-04-25T02:34:16;6.70;;;6.00;;
34204;SDS011;20471;49.680;20.074;2023-04-25T02:36:42;6.10;;;5.30;;
34204;SDS011;20471;49.680;20.074;2023-04-25T02:39:09;5.00;;;4.50;;
34204;SDS011;20471;49.680;20.074;2023-04-25T02:41:36;6.30;;;5.40;;
34204;SDS011;20471;49.680;20.074;2023-04-25T02:44:03;6.70;;;5.20;;
34204;SDS011;20471;49.680;20.074;2023-04-25T02:46:29;7.60;;;5.40;;
34204;SDS011;20471;49.680;20.074;2023-04-25T02:48:56;10.80;;;5.70;;
34204;SDS011;20471;49.680;20.074;2023-04-25T02:51:23;6.60;;;6.00;;
34204;SDS011;20471;49.680;20.074;2023-04-25T02:53:49;7.10;;;5.70;;
34204;SDS011;20471;49.680;20.074;2023-04-25T02:56:16;6.70;;;6.10;;
34204;SDS011;20471;49.680;20.074;2023-04-25T02:58:43;8.30;;;6.50;;
34204;SDS011;20471;49.680;20.074;2023-04-25T03:01:10;7.90;;;6.70;;
34204;SDS011;20471;49.680;20.074;2023-04-25T03:03:37;8.00;;;7.00;;
34204;SDS011;20471;49.680;20.074;2023-04-25T03:06:04;9.40;;;7.90;;
34204;SDS011;20471;49.680;20.074;2023-04-25T03:08:31;9.50;;;7.90;;
34204;SDS011;20471;49.680;20.074;2023-04-25T03:10:58;8.30;;;7.50;;
34204;SDS011;20471;49.680;20.074;2023-04-25T03:13:25;7.90;;;7.00;;
34204;SDS011;20471;49.680;20.074;2023-04-25T03:15:53;9.50;;;7.90;;
34204;SDS011;20471;49.680;20.074;2023-04-25T03:18:20;10.90;;;8.40;;
34204;SDS011;20471;49.680;20.074;2023-04-25T03:20:46;10.00;;;8.40;;
34204;SDS011;20471;49.680;20.074;2023-04-25T03:23:13;9.40;;;8.10;;
34204;SDS011;20471;49.680;20.074;2023-04-25T03:25:40;7.60;;;6.80;;
34204;SDS011;20471;49.680;20.074;2023-04-25T03:28:07;8.10;;;7.40;;
34204;SDS011;20471;49.680;20.074;2023-04-25T03:30:33;8.80;;;7.60;;
34204;SDS011;20471;49.680;20.074;2023-04-25T03:33:00;9.90;;;8.00;;
34204;SDS011;20471;49.680;20.074;2023-04-25T03:35:27;9.30;;;7.40;;
34204;SDS011;20471;49.680;20.074;2023-04-25T03:37:53;8.50;;;7.60;;
34204;SDS011;20471;49.680;20.074;2023-04-25T03:40:20;8.00;;;7.10;;
34204;SDS011;20471;49.680;20.074;2023-04-25T03:42:47;9.40;;;7.80;;
34204;SDS011;20471;49.680;20.074;2023-04-25T03:45:13;8.40;;;7.40;;
34204;SDS011;20471;49.680;20.074;2023-04-25T03:47:40;7.00;;;6.30;;
34204;SDS011;20471;49.680;20.074;2023-04-25T03:50:07;7.30;;;6.30;;
34204;SDS011;20471;49.680;20.074;2023-04-25T03:52:34;6.80;;;6.20;;
34204;SDS011;20471;49.680;20.074;2023-04-25T03:55:01;6.80;;;6.10;;
34204;SDS011;20471;49.680;20.074;2023-04-25T03:57:27;6.60;;;5.40;;
34204;SDS011;20471;49.680;20.074;2023-04-25T03:59:54;7.10;;;5.40;;
34204;SDS011;20471;49.680;20.074;2023-04-25T04:02:21;9.00;;;5.90;;
34204;SDS011;20471;49.680;20.074;2023-04-25T04:04:47;8.50;;;6.10;;
34204;SDS011;20471;49.680;20.074;2023-04-25T04:07:14;7.10;;;6.40;;
34204;SDS011;20471;49.680;20.074;2023-04-25T04:09:41;19.50;;;17.50;;
34204;SDS011;20471;49.680;20.074;2023-04-25T04:12:08;42.50;;;36.00;;
34204;SDS011;20471;49.680;20.074;2023-04-25T04:14:34;41.40;;;33.30;;
34204;SDS011;20471;49.680;20.074;2023-04-25T04:17:01;70.80;;;57.10;;
34204;SDS011;20471;49.680;20.074;2023-04-25T04:19:28;44.80;;;37.50;;
34204;SDS011;20471;49.680;20.074;2023-04-25T04:21:54;45.00;;;33.30;;
34204;SDS011;20471;49.680;20.074;2023-04-25T04:24:21;63.60;;;46.80;;
34204;SDS011;20471;49.680;20.074;2023-04-25T04:26:48;76.30;;;54.00;;
34204;SDS011;20471;49.680;20.074;2023-04-25T04:29:14;63.00;;;42.80;;
34204;SDS011;20471;49.680;20.074;2023-04-25T04:31:49;137.70;;;76.70;;
34204;SDS011;20471;49.680;20.074;2023-04-25T04:34:18;214.30;;;112.00;;
34204;SDS011;20471;49.680;20.074;2023-04-25T04:36:45;65.50;;;38.00;;
34204;SDS011;20471;49.680;20.074;2023-04-25T04:39:12;30.50;;;20.80;;
34204;SDS011;20471;49.680;20.074;2023-04-25T04:41:40;31.80;;;25.50;;
34204;SDS011;20471;49.680;20.074;2023-04-25T04:44:06;19.70;;;17.10;;
34204;SDS011;20471;49.680;20.074;2023-04-25T04:46:34;14.80;;;13.20;;
34204;SDS011;20471;49.680;20.074;2023-04-25T04:49:06;15.80;;;14.20;;
34204;SDS011;20471;49.680;20.074;2023-04-25T04:51:32;18.00;;;15.50;;
34204;SDS011;20471;49.680;20.074;2023-04-25T04:53:59;18.90;;;16.80;;
34204;SDS011;20471;49.680;20.074;2023-04-25T04:56:31;15.50;;;12.10;;
34204;SDS011;20471;49.680;20.074;2023-04-25T04:58:58;12.90;;;10.50;;
34204;SDS011;20471;49.680;20.074;2023-04-25T05:01:25;11.40;;;9.30;;
34204;SDS011;20471;49.680;20.074;2023-04-25T05:03:52;15.50;;;13.00;;
34204;SDS011;20471;49.680;20.074;2023-04-25T05:06:19;16.70;;;14.20;;
34204;SDS011;20471;49.680;20.074;2023-04-25T05:08:45;21.10;;;17.00;;
34204;SDS011;20471;49.680;20.074;2023-04-25T05:11:12;13.10;;;11.10;;
34204;SDS011;20471;49.680;20.074;2023-04-25T05:13:41;11.10;;;8.70;;
34204;SDS011;20471;49.680;20.074;2023-04-25T05:16:08;9.70;;;8.60;;
34204;SDS011;20471;49.680;20.074;2023-04-25T05:18:35;10.60;;;9.60;;
34204;SDS011;20471;49.680;20.074;2023-04-25T05:21:02;9.00;;;7.80;;
34204;SDS011;20471;49.680;20.074;2023-04-25T05:23:28;9.40;;;6.20;;
34204;SDS011;20471;49.680;20.074;2023-04-25T05:25:56;7.60;;;5.70;;
34204;SDS011;20471;49.680;20.074;2023-04-25T05:28:23;6.50;;;5.30;;
34204;SDS011;20471;49.680;20.074;2023-04-25T05:30:50;8.80;;;6.00;;
34204;SDS011;20471;49.680;20.074;2023-04-25T05:33:16;7.80;;;6.00;;
34204;SDS011;20471;49.680;20.074;2023-04-25T05:35:43;7.10;;;6.20;;
34204;SDS011;20471;49.680;20.074;2023-04-25T05:38:11;11.00;;;6.40;;
34204;SDS011;20471;49.680;20.074;2023-04-25T05:40:38;9.60;;;7.70;;
34204;SDS011;20471;49.680;20.074;2023-04-25T05:43:05;16.70;;;11.80;;
34204;SDS011;20471;49.680;20.074;2023-04-25T05:45:31;30.60;;;18.10;;
34204;SDS011;20471;49.680;20.074;2023-04-25T05:47:58;36.50;;;21.80;;
34204;SDS011;20471;49.680;20.074;2023-04-25T05:50:25;90.50;;;46.50;;
34204;SDS011;20471;49.680;20.074;2023-04-25T05:52:52;75.00;;;43.30;;
34204;SDS011;20471;49.680;20.074;2023-04-25T05:55:18;44.50;;;29.10;;
34204;SDS011;20471;49.680;20.074;2023-04-25T05:57:45;21.60;;;17.60;;
34204;SDS011;20471;49.680;20.074;2023-04-25T06:00:12;11.90;;;10.60;;
34204;SDS011;20471;49.680;20.074;2023-04-25T06:02:41;14.60;;;10.90;;
34204;SDS011;20471;49.680;20.074;2023-04-25T06:05:08;9.80;;;8.60;;
34204;SDS011;20471;49.680;20.074;2023-04-25T06:07:35;14.20;;;9.70;;
34204;SDS011;20471;49.680;20.074;2023-04-25T06:10:02;11.80;;;9.00;;
34204;SDS011;20471;49.680;20.074;2023-04-25T06:12:32;10.90;;;8.80;;
34204;SDS011;20471;49.680;20.074;2023-04-25T06:14:59;11.00;;;8.80;;
34204;SDS011;20471;49.680;20.074;2023-04-25T06:17:27;10.10;;;9.10;;
34204;SDS011;20471;49.680;20.074;2023-04-25T06:19:53;10.70;;;9.50;;
34204;SDS011;20471;49.680;20.074;2023-04-25T06:22:20;11.90;;;9.40;;
34204;SDS011;20471;49.680;20.074;2023-04-25T06:24:47;10.00;;;9.10;;
34204;SDS011;20471;49.680;20.074;2023-04-25T06:27:14;10.20;;;8.80;;
34204;SDS011;20471;49.680;20.074;2023-04-25T06:29:41;8.70;;;7.60;;
34204;SDS011;20471;49.680;20.074;2023-04-25T06:32:07;9.00;;;8.10;;
34204;SDS011;20471;49.680;20.074;2023-04-25T06:34:34;8.60;;;7.50;;
34204;SDS011;20471;49.680;20.074;2023-04-25T06:37:01;9.30;;;8.30;;
34204;SDS011;20471;49.680;20.074;2023-04-25T06:39:28;8.20;;;7.10;;
34204;SDS011;20471;49.680;20.074;2023-04-25T06:41:55;9.10;;;7.10;;
34204;SDS011;20471;49.680;20.074;2023-04-25T06:44:22;8.20;;;7.40;;
34204;SDS011;20471;49.680;20.074;2023-04-25T06:46:49;7.10;;;6.40;;
34204;SDS011;20471;49.680;20.074;2023-04-25T06:49:16;7.10;;;6.40;;
34204;SDS011;20471;49.680;20.074;2023-04-25T06:51:43;7.30;;;6.10;;
34204;SDS011;20471;49.680;20.074;2023-04-25T06:54:10;7.50;;;6.70;;
34204;SDS011;20471;49.680;20.074;2023-04-25T06:56:36;8.70;;;7.70;;
34204;SDS011;20471;49.680;20.074;2023-04-25T06:59:03;6.90;;;6.20;;
34204;SDS011;20471;49.680;20.074;2023-04-25T07:01:30;8.70;;;6.20;;
34204;SDS011;20471;49.680;20.074;2023-04-25T07:03:57;5.90;;;4.80;;
34204;SDS011;20471;49.680;20.074;2023-04-25T07:06:23;6.80;;;5.90;;
34204;SDS011;20471;49.680;20.074;2023-04-25T07:08:51;8.60;;;6.10;;
34204;SDS011;20471;49.680;20.074;2023-04-25T07:11:18;6.90;;;5.90;;
34204;SDS011;20471;49.680;20.074;2023-04-25T07:13:45;10.40;;;7.60;;
34204;SDS011;20471;49.680;20.074;2023-04-25T07:16:12;9.90;;;6.80;;
34204;SDS011;20471;49.680;20.074;2023-04-25T07:18:38;6.20;;;5.60;;
34204;SDS011;20471;49.680;20.074;2023-04-25T07:21:05;8.90;;;6.30;;
34204;SDS011;20471;49.680;20.074;2023-04-25T07:23:32;9.80;;;6.40;;
34204;SDS011;20471;49.680;20.074;2023-04-25T07:25:59;7.10;;;6.40;;
34204;SDS011;20471;49.680;20.074;2023-04-25T07:28:25;10.20;;;8.10;;
34204;SDS011;20471;49.680;20.074;2023-04-25T07:30:52;10.60;;;7.30;;
34204;SDS011;20471;49.680;20.074;2023-04-25T07:33:19;10.70;;;6.60;;
34204;SDS011;20471;49.680;20.074;2023-04-25T07:35:46;5.80;;;5.10;;
34204;SDS011;20471;49.680;20.074;2023-04-25T07:38:13;4.30;;;3.90;;
34204;SDS011;20471;49.680;20.074;2023-04-25T07:40:40;4.40;;;3.60;;
34204;SDS011;20471;49.680;20.074;2023-04-25T07:43:07;6.70;;;4.00;;
34204;SDS011;20471;49.680;20.074;2023-04-25T07:45:33;7.50;;;4.70;;
34204;SDS011;20471;49.680;20.074;2023-04-25T07:48:00;6.00;;;5.00;;
34204;SDS011;20471;49.680;20.074;2023-04-25T07:50:27;7.50;;;4.50;;
34204;SDS011;20471;49.680;20.074;2023-04-25T07:52:54;5.10;;;4.00;;
34204;SDS011;20471;49.680;20.074;2023-04-25T07:55:21;6.30;;;5.10;;
34204;SDS011;20471;49.680;20.074;2023-04-25T07:57:48;6.00;;;5.00;;
34204;SDS011;20471;49.680;20.074;2023-04-25T08:00:15;7.60;;;5.60;;
34204;SDS011;20471;49.680;20.074;2023-04-25T08:02:42;8.20;;;5.00;;
34204;SDS011;20471;49.680;20.074;2023-04-25T08:05:09;7.50;;;4.60;;
34204;SDS011;20471;49.680;20.074;2023-04-25T08:07:37;20.10;;;10.80;;
34204;SDS011;20471;49.680;20.074;2023-04-25T08:10:05;9.40;;;6.20;;
34204;SDS011;20471;49.680;20.074;2023-04-25T08:12:33;6.60;;;4.20;;
34204;SDS011;20471;49.680;20.074;2023-04-25T08:14:59;6.90;;;4.70;;
34204;SDS011;20471;49.680;20.074;2023-04-25T08:17:26;12.70;;;5.60;;
34204;SDS011;20471;49.680;20.074;2023-04-25T08:19:53;6.90;;;4.80;;
34204;SDS011;20471;49.680;20.074;2023-04-25T08:22:21;6.10;;;4.40;;
34204;SDS011;20471;49.680;20.074;2023-04-25T08:24:47;6.70;;;5.80;;
34204;SDS011;20471;49.680;20.074;2023-04-25T08:27:14;12.60;;;7.60;;
34204;SDS011;20471;49.680;20.074;2023-04-25T08:29:41;10.10;;;6.50;;
34204;SDS011;20471;49.680;20.074;2023-04-25T08:32:11;8.30;;;6.00;;
34204;SDS011;20471;49.680;20.074;2023-04-25T08:34:37;10.10;;;6.30;;
34204;SDS011;20471;49.680;20.074;2023-04-25T08:37:08;7.50;;;6.60;;
34204;SDS011;20471;49.680;20.074;2023-04-25T08:39:36;7.30;;;5.50;;
34204;SDS011;20471;49.680;20.074;2023-04-25T08:42:05;9.90;;;6.00;;
34204;SDS011;20471;49.680;20.074;2023-04-25T08:44:33;9.30;;;6.40;;
34204;SDS011;20471;49.680;20.074;2023-04-25T08:47:04;8.90;;;6.30;;
34204;SDS011;20471;49.680;20.074;2023-04-25T08:49:34;6.50;;;5.70;;
34204;SDS011;20471;49.680;20.074;2023-04-25T08:52:02;7.40;;;6.00;;
34204;SDS011;20471;49.680;20.074;2023-04-25T08:54:31;7.60;;;6.10;;
34204;SDS011;20471;49.680;20.074;2023-04-25T08:57:02;11.10;;;6.50;;
34204;SDS011;20471;49.680;20.074;2023-04-25T08:59:30;10.10;;;6.30;;
34204;SDS011;20471;49.680;20.074;2023-04-25T09:01:58;7.50;;;6.60;;
34204;SDS011;20471;49.680;20.074;2023-04-25T09:04:25;8.30;;;5.70;;
34204;SDS011;20471;49.680;20.074;2023-04-25T09:06:51;7.60;;;5.70;;
34204;SDS011;20471;49.680;20.074;2023-04-25T09:09:18;8.70;;;6.50;;
34204;SDS011;20471;49.680;20.074;2023-04-25T09:11:45;8.40;;;6.40;;
34204;SDS011;20471;49.680;20.074;2023-04-25T09:14:19;8.80;;;6.60;;
34204;SDS011;20471;49.680;20.074;2023-04-25T09:19:23;10.00;;;7.20;;
34204;SDS011;20471;49.680;20.074;2023-04-25T09:21:56;7.70;;;6.90;;
34204;SDS011;20471;49.680;20.074;2023-04-25T09:24:30;7.30;;;6.60;;
34204;SDS011;20471;49.680;20.074;2023-04-25T09:27:04;10.30;;;7.60;;
34204;SDS011;20471;49.680;20.074;2023-04-25T09:29:35;9.80;;;7.70;;
34204;SDS011;20471;49.680;20.074;2023-04-25T09:32:20;10.80;;;8.60;;
34204;SDS011;20471;49.680;20.074;2023-04-25T09:34:51;10.00;;;9.00;;
34204;SDS011;20471;49.680;20.074;2023-04-25T09:39:52;12.20;;;9.40;;
34204;SDS011;20471;49.680;20.074;2023-04-25T09:42:23;10.60;;;9.20;;
34204;SDS011;20471;49.680;20.074;2023-04-25T09:44:51;11.60;;;8.60;;
34204;SDS011;20471;49.680;20.074;2023-04-25T09:47:22;10.60;;;8.30;;
34204;SDS011;20471;49.680;20.074;2023-04-25T09:49:51;12.70;;;9.00;;
34204;SDS011;20471;49.680;20.074;2023-04-25T09:52:22;9.20;;;7.70;;
34204;SDS011;20471;49.680;20.074;2023-04-25T09:54:51;12.10;;;8.40;;
34204;SDS011;20471;49.680;20.074;2023-04-25T09:57:19;8.50;;;7.70;;
34204;SDS011;20471;49.680;20.074;2023-04-25T09:59:48;9.70;;;7.00;;
34204;SDS011;20471;49.680;20.074;2023-04-25T10:02:19;9.20;;;7.40;;
34204;SDS011;20471;49.680;20.074;2023-04-25T10:04:52;9.60;;;6.70;;
34204;SDS011;20471;49.680;20.074;2023-04-25T10:07:24;9.70;;;7.20;;
34204;SDS011;20471;49.680;20.074;2023-04-25T10:09:59;8.20;;;6.30;;
34204;SDS011;20471;49.680;20.074;2023-04-25T10:12:30;9.40;;;6.50;;
34204;SDS011;20471;49.680;20.074;2023-04-25T10:15:00;6.90;;;5.60;;
34204;SDS011;20471;49.680;20.074;2023-04-25T10:17:28;7.20;;;5.90;;
34204;SDS011;20471;49.680;20.074;2023-04-25T10:19:56;9.60;;;4.80;;
34204;SDS011;20471;49.680;20.074;2023-04-25T10:22:26;7.50;;;5.50;;
34204;SDS011;20471;49.680;20.074;2023-04-25T10:25:00;5.80;;;5.10;;
34204;SDS011;20471;49.680;20.074;2023-04-25T10:27:31;7.00;;;4.70;;
34204;SDS011;20471;49.680;20.074;2023-04-25T10:30:03;6.60;;;4.20;;
34204;SDS011;20471;49.680;20.074;2023-04-25T10:32:41;10.40;;;4.90;;
34204;SDS011;20471;49.680;20.074;2023-04-25T10:35:16;4.80;;;4.30;;
34204;SDS011;20471;49.680;20.074;2023-04-25T10:37:57;4.50;;;3.80;;
34204;SDS011;20471;49.680;20.074;2023-04-25T10:40:24;4.20;;;3.80;;
34204;SDS011;20471;49.680;20.074;2023-04-25T10:42:52;7.20;;;4.10;;
34204;SDS011;20471;49.680;20.074;2023-04-25T10:45:21;6.80;;;4.10;;
34204;SDS011;20471;49.680;20.074;2023-04-25T10:47:48;4.80;;;4.00;;
34204;SDS011;20471;49.680;20.074;2023-04-25T10:50:15;4.40;;;4.00;;
34204;SDS011;20471;49.680;20.074;2023-04-25T10:52:42;4.70;;;3.80;;
34204;SDS011;20471;49.680;20.074;2023-04-25T10:55:10;6.70;;;4.50;;
34204;SDS011;20471;49.680;20.074;2023-04-25T10:57:39;6.00;;;4.20;;
34204;SDS011;20471;49.680;20.074;2023-04-25T11:00:18;4.20;;;3.80;;
34204;SDS011;20471;49.680;20.074;2023-04-25T11:02:57;6.30;;;3.90;;
34204;SDS011;20471;49.680;20.074;2023-04-25T11:05:33;4.70;;;3.70;;
34204;SDS011;20471;49.680;20.074;2023-04-25T11:08:02;6.30;;;4.60;;
34204;SDS011;20471;49.680;20.074;2023-04-25T11:10:38;6.10;;;4.40;;
34204;SDS011;20471;49.680;20.074;2023-04-25T11:13:08;5.40;;;4.10;;
34204;SDS011;20471;49.680;20.074;2023-04-25T11:15:35;5.60;;;4.50;;
34204;SDS011;20471;49.680;20.074;2023-04-25T11:18:03;5.50;;;4.80;;
34204;SDS011;20471;49.680;20.074;2023-04-25T11:20:30;7.30;;;5.20;;
34204;SDS011;20471;49.680;20.074;2023-04-25T11:22:58;6.30;;;4.90;;
34204;SDS011;20471;49.680;20.074;2023-04-25T11:25:26;4.70;;;4.20;;
34204;SDS011;20471;49.680;20.074;2023-04-25T11:27:57;6.30;;;5.10;;
34204;SDS011;20471;49.680;20.074;2023-04-25T11:30:27;5.90;;;5.30;;
34204;SDS011;20471;49.680;20.074;2023-04-25T11:32:57;5.70;;;4.70;;
34204;SDS011;20471;49.680;20.074;2023-04-25T11:35:26;6.80;;;5.20;;
34204;SDS011;20471;49.680;20.074;2023-04-25T11:37:53;6.10;;;5.10;;
34204;SDS011;20471;49.680;20.074;2023-04-25T11:40:20;7.60;;;4.70;;
34204;SDS011;20471;49.680;20.074;2023-04-25T11:42:48;6.40;;;5.50;;
34204;SDS011;20471;49.680;20.074;2023-04-25T11:45:16;6.40;;;5.20;;
34204;SDS011;20471;49.680;20.074;2023-04-25T11:47:44;6.60;;;6.00;;
34204;SDS011;20471;49.680;20.074;2023-04-25T11:50:12;6.50;;;5.50;;
34204;SDS011;20471;49.680;20.074;2023-04-25T11:52:44;8.20;;;5.00;;
34204;SDS011;20471;49.680;20.074;2023-04-25T11:55:15;10.20;;;5.60;;
34204;SDS011;20471;49.680;20.074;2023-04-25T11:57:45;11.20;;;6.20;;
34204;SDS011;20471;49.680;20.074;2023-04-25T12:00:18;10.00;;;6.20;;
34204;SDS011;20471;49.680;20.074;2023-04-25T12:02:47;6.50;;;5.80;;
34204;SDS011;20471;49.680;20.074;2023-04-25T12:05:18;9.40;;;6.70;;
34204;SDS011;20471;49.680;20.074;2023-04-25T12:07:47;12.30;;;7.50;;
34204;SDS011;20471;49.680;20.074;2023-04-25T12:10:15;13.00;;;6.60;;
34204;SDS011;20471;49.680;20.074;2023-04-25T12:12:44;7.30;;;5.90;;
34204;SDS011;20471;49.680;20.074;2023-04-25T12:15:13;7.10;;;5.80;;
34204;SDS011;20471;49.680;20.074;2023-04-25T12:17:46;7.40;;;6.10;;
34204;SDS011;20471;49.680;20.074;2023-04-25T12:20:16;8.90;;;6.20;;
34204;SDS011;20471;49.680;20.074;2023-04-25T12:22:47;7.70;;;6.80;;
34204;SDS011;20471;49.680;20.074;2023-04-25T12:28:14;12.50;;;6.90;;
34204;SDS011;20471;49.680;20.074;2023-04-25T12:33:28;7.80;;;6.50;;
34204;SDS011;20471;49.680;20.074;2023-04-25T12:35:56;8.70;;;6.40;;
34204;SDS011;20471;49.680;20.074;2023-04-25T12:38:25;8.30;;;7.50;;
34204;SDS011;20471;49.680;20.074;2023-04-25T12:40:54;10.80;;;7.70;;
34204;SDS011;20471;49.680;20.074;2023-04-25T12:43:21;13.40;;;8.50;;
34204;SDS011;20471;49.680;20.074;2023-04-25T12:45:51;10.30;;;7.80;;
34204;SDS011;20471;49.680;20.074;2023-04-25T12:48:22;12.60;;;8.00;;
34204;SDS011;20471;49.680;20.074;2023-04-25T12:50:51;11.50;;;8.70;;
34204;SDS011;20471;49.680;20.074;2023-04-25T12:53:20;15.30;;;10.20;;
34204;SDS011;20471;49.680;20.074;2023-04-25T12:55:50;17.00;;;11.10;;
34204;SDS011;20471;49.680;20.074;2023-04-25T12:58:20;11.20;;;9.50;;
34204;SDS011;20471;49.680;20.074;2023-04-25T13:00:47;14.20;;;10.50;;
34204;SDS011;20471;49.680;20.074;2023-04-25T13:03:14;12.40;;;9.60;;
34204;SDS011;20471;49.680;20.074;2023-04-25T13:05:43;11.20;;;8.50;;
34204;SDS011;20471;49.680;20.074;2023-04-25T13:08:10;10.10;;;9.00;;
34204;SDS011;20471;49.680;20.074;2023-04-25T13:10:40;11.70;;;8.20;;
34204;SDS011;20471;49.680;20.074;2023-04-25T13:13:07;11.40;;;9.20;;
34204;SDS011;20471;49.680;20.074;2023-04-25T13:15:34;8.70;;;7.80;;
34204;SDS011;20471;49.680;20.074;2023-04-25T13:18:05;9.80;;;8.40;;
34204;SDS011;20471;49.680;20.074;2023-04-25T13:20:32;9.90;;;7.80;;
34204;SDS011;20471;49.680;20.074;2023-04-25T13:23:02;12.70;;;8.80;;
34204;SDS011;20471;49.680;20.074;2023-04-25T13:25:29;11.70;;;8.10;;
34204;SDS011;20471;49.680;20.074;2023-04-25T13:27:56;9.80;;;8.60;;
34204;SDS011;20471;49.680;20.074;2023-04-25T13:30:28;9.60;;;7.60;;
34204;SDS011;20471;49.680;20.074;2023-04-25T13:32:55;9.10;;;7.90;;
34204;SDS011;20471;49.680;20.074;2023-04-25T13:35:22;9.90;;;7.90;;
34204;SDS011;20471;49.680;20.074;2023-04-25T13:37:49;12.20;;;8.70;;
34204;SDS011;20471;49.680;20.074;2023-04-25T13:40:16;11.40;;;8.40;;
34204;SDS011;20471;49.680;20.074;2023-04-25T13:42:43;9.30;;;7.80;;
34204;SDS011;20471;49.680;20.074;2023-04-25T13:45:13;9.20;;;7.80;;
34204;SDS011;20471;49.680;20.074;2023-04-25T13:47:43;13.90;;;10.90;;
34204;SDS011;20471;49.680;20.074;2023-04-25T13:50:11;19.60;;;13.20;;
34204;SDS011;20471;49.680;20.074;2023-04-25T13:52:43;15.80;;;11.40;;
34204;SDS011;20471;49.680;20.074;2023-04-25T13:55:14;18.90;;;15.00;;
34204;SDS011;20471;49.680;20.074;2023-04-25T13:57:41;13.30;;;9.00;;
34204;SDS011;20471;49.680;20.074;2023-04-25T14:00:08;9.00;;;8.10;;
34204;SDS011;20471;49.680;20.074;2023-04-25T14:02:35;11.20;;;8.80;;
34204;SDS011;20471;49.680;20.074;2023-04-25T14:05:03;9.30;;;8.10;;
34204;SDS011;20471;49.680;20.074;2023-04-25T14:07:31;9.90;;;8.10;;
34204;SDS011;20471;49.680;20.074;2023-04-25T14:09:57;11.80;;;8.30;;
34204;SDS011;20471;49.680;20.074;2023-04-25T14:12:24;16.00;;;9.70;;
34204;SDS011;20471;49.680;20.074;2023-04-25T14:14:52;12.30;;;9.50;;
34204;SDS011;20471;49.680;20.074;2023-04-25T14:17:21;10.90;;;9.70;;
34204;SDS011;20471;49.680;20.074;2023-04-25T14:19:49;10.60;;;9.50;;
34204;SDS011;20471;49.680;20.074;2023-04-25T14:22:16;11.50;;;9.50;;
34204;SDS011;20471;49.680;20.074;2023-04-25T14:24:43;9.90;;;8.80;;
34204;SDS011;20471;49.680;20.074;2023-04-25T14:27:10;11.40;;;8.90;;
34204;SDS011;20471;49.680;20.074;2023-04-25T14:29:37;13.70;;;10.80;;
34204;SDS011;20471;49.680;20.074;2023-04-25T14:32:04;15.30;;;11.30;;
34204;SDS011;20471;49.680;20.074;2023-04-25T14:34:31;11.90;;;9.90;;
34204;SDS011;20471;49.680;20.074;2023-04-25T14:36:58;14.10;;;10.10;;
34204;SDS011;20471;49.680;20.074;2023-04-25T14:39:25;15.70;;;11.30;;
34204;SDS011;20471;49.680;20.074;2023-04-25T14:41:51;16.10;;;12.00;;
34204;SDS011;20471;49.680;20.074;2023-04-25T14:44:18;23.70;;;13.90;;
34204;SDS011;20471;49.680;20.074;2023-04-25T14:46:47;22.20;;;16.10;;